Time;durP1;ratioP1;P1;durP2;ratioP2;P2;SDS_P1;SDS_P2;PMS_P1;PMS_P2;Temp;Humidity;BMP_temperature;BMP_pressure;BME280_temperature;BME280_humidity;BME280_pressure;Samples;Min_cycle;Max_cycle;Signal;HPM_P1;HPM_P2
2021/12/02 00:00:44;;;;;;;3.90;1.02;;;4.30;99.90;;;;;;5072473;28;20446;-71
2021/12/02 00:03:10;;;;;;;8.73;1.58;;;4.30;99.90;;;;;;5072898;28;20040;-71
2021/12/02 00:05:36;;;;;;;4.07;0.68;;;4.30;99.90;;;;;;5092550;28;20097;-70
2021/12/02 00:08:02;;;;;;;2.85;0.47;;;4.30;99.90;;;;;;5092170;28;20773;-71
2021/12/02 00:10:31;;;;;;;6.80;1.73;;;4.30;99.90;;;;;;5092404;28;20039;-71
2021/12/02 00:12:57;;;;;;;3.58;0.70;;;4.30;99.90;;;;;;5092522;28;20117;-71
2021/12/02 00:15:29;;;;;;;5.80;0.90;;;4.20;99.90;;;;;;5092058;28;20056;-71
2021/12/02 00:23:28;;;;;;;5.53;1.10;;;4.10;99.90;;;;;;5092418;28;20140;-70
2021/12/02 00:25:57;;;;;;;6.28;1.35;;;4.00;99.90;;;;;;5092378;28;20430;-70
2021/12/02 00:28:25;;;;;;;3.25;0.80;;;3.90;99.90;;;;;;5095465;28;20044;-70
2021/12/02 00:30:55;;;;;;;6.30;1.02;;;3.80;99.90;;;;;;5096243;28;20040;-70
2021/12/02 00:33:24;;;;;;;7.97;2.53;;;3.70;99.90;;;;;;5096364;28;20197;-71
2021/12/02 00:35:50;;;;;;;8.68;2.40;;;3.60;99.90;;;;;;5095942;28;20063;-71
2021/12/02 00:38:21;;;;;;;6.25;2.35;;;3.50;99.90;;;;;;5096509;28;20071;-71
2021/12/02 00:40:48;;;;;;;5.57;2.42;;;3.40;99.90;;;;;;5096370;28;20047;-71
2021/12/02 00:43:14;;;;;;;5.57;1.33;;;3.30;99.90;;;;;;5096091;28;20040;-71
2021/12/02 00:45:41;;;;;;;9.70;1.40;;;3.30;99.90;;;;;;5096165;28;20384;-70
2021/12/02 00:48:08;;;;;;;4.32;1.23;;;3.20;99.90;;;;;;5096154;28;20040;-71
2021/12/02 00:50:37;;;;;;;4.85;1.10;;;3.20;99.90;;;;;;5078114;28;20392;-70
2021/12/02 00:53:05;;;;;;;2.20;0.85;;;3.30;99.90;;;;;;5095657;28;20113;-71
2021/12/02 00:55:32;;;;;;;4.43;0.80;;;3.30;99.90;;;;;;5095965;28;20047;-70
2021/12/02 00:57:59;;;;;;;2.65;0.75;;;3.30;99.90;;;;;;5095928;28;20043;-70
2021/12/02 01:00:25;;;;;;;4.53;0.80;;;3.30;99.90;;;;;;5095732;28;20098;-70
2021/12/02 01:02:50;;;;;;;5.25;0.88;;;3.30;99.90;;;;;;5095772;28;20076;-70
2021/12/02 01:05:17;;;;;;;4.32;1.13;;;3.40;99.90;;;;;;5077141;28;20040;-70
2021/12/02 01:07:43;;;;;;;1.60;0.90;;;3.30;99.90;;;;;;5075192;28;20075;-71
2021/12/02 01:10:09;;;;;;;3.58;0.95;;;3.20;99.90;;;;;;5075237;28;20326;-71
2021/12/02 01:12:38;;;;;;;5.60;0.90;;;3.20;99.90;;;;;;5075386;28;20396;-70
2021/12/02 01:15:05;;;;;;;6.47;0.82;;;3.20;99.90;;;;;;5075373;28;20044;-71
2021/12/02 01:17:31;;;;;;;4.28;0.80;;;3.20;99.90;;;;;;5075512;28;20067;-70
2021/12/02 01:19:57;;;;;;;8.43;1.15;;;3.30;99.90;;;;;;5075258;28;20040;-71
2021/12/02 01:22:27;;;;;;;3.67;0.90;;;3.40;99.90;;;;;;5075183;28;20460;-71
2021/12/02 01:24:53;;;;;;;4.28;0.88;;;3.40;99.90;;;;;;5074910;28;20041;-70
2021/12/02 01:27:21;;;;;;;5.30;0.80;;;3.50;99.90;;;;;;5075038;28;20048;-70
2021/12/02 01:29:48;;;;;;;3.65;0.77;;;3.50;99.90;;;;;;5074956;28;20442;-70
2021/12/02 01:32:15;;;;;;;3.20;0.60;;;3.50;99.90;;;;;;5074994;28;20505;-71
2021/12/02 01:34:45;;;;;;;6.00;0.80;;;3.50;99.90;;;;;;5075161;28;20049;-71
2021/12/02 01:37:11;;;;;;;2.97;0.50;;;3.40;99.90;;;;;;5074853;28;20079;-70
2021/12/02 01:39:37;;;;;;;2.72;0.60;;;3.30;99.90;;;;;;5074369;28;20088;-70
2021/12/02 01:42:06;;;;;;;8.82;2.53;;;3.30;99.90;;;;;;5074716;28;20049;-71
2021/12/02 01:44:33;;;;;;;3.22;0.80;;;3.20;99.90;;;;;;5074473;28;20135;-71
2021/12/02 01:47:00;;;;;;;4.03;1.45;;;3.20;99.90;;;;;;5057262;28;20087;-70
2021/12/02 01:49:29;;;;;;;3.88;0.60;;;3.10;99.90;;;;;;5074860;28;20045;-71
2021/12/02 01:51:55;;;;;;;2.35;0.50;;;3.10;99.90;;;;;;5074516;28;20083;-71
2021/12/02 01:54:26;;;;;;;3.15;0.73;;;3.00;99.90;;;;;;5074410;28;20079;-71
2021/12/02 01:57:13;;;;;;;5.78;0.70;;;3.00;99.90;;;;;;5074580;28;20080;-70
2021/12/02 01:59:39;;;;;;;4.20;0.75;;;3.00;99.90;;;;;;5073904;28;20075;-71
2021/12/02 02:02:08;;;;;;;2.60;0.47;;;3.00;99.90;;;;;;5074334;28;20472;-70
2021/12/02 02:04:34;;;;;;;2.72;0.65;;;3.00;99.90;;;;;;5086628;28;20040;-71
2021/12/02 02:07:09;;;;;;;4.30;0.73;;;3.00;99.90;;;;;;5094493;28;20044;-71
2021/12/02 02:09:35;;;;;;;3.83;0.70;;;2.90;99.90;;;;;;5094574;28;20098;-71
2021/12/02 02:12:07;;;;;;;4.85;0.70;;;2.90;99.90;;;;;;5094484;28;20403;-70
2021/12/02 02:14:33;;;;;;;4.15;0.75;;;2.90;99.90;;;;;;5094506;28;20048;-70
2021/12/02 02:17:03;;;;;;;3.05;0.55;;;2.80;99.90;;;;;;5094191;28;20074;-70
2021/12/02 02:19:31;;;;;;;2.30;0.90;;;2.80;99.90;;;;;;5094337;28;20329;-71
2021/12/02 02:21:58;;;;;;;1.55;0.40;;;2.80;99.90;;;;;;5094069;28;20104;-71
2021/12/02 02:24:24;;;;;;;4.85;0.68;;;2.70;99.90;;;;;;5094356;28;20044;-71
2021/12/02 02:26:50;;;;;;;4.20;0.60;;;2.70;99.90;;;;;;5094172;28;20334;-70
2021/12/02 02:29:18;;;;;;;5.55;0.60;;;2.60;99.90;;;;;;5094120;28;20393;-71
2021/12/02 02:31:45;;;;;;;4.75;0.75;;;2.50;99.90;;;;;;5093953;28;20087;-70
2021/12/02 02:34:13;;;;;;;3.55;0.77;;;2.40;99.90;;;;;;5094225;28;20044;-71
2021/12/02 02:36:50;;;;;;;3.80;0.50;;;2.30;99.90;;;;;;5093810;28;20082;-70
2021/12/02 02:39:16;;;;;;;6.72;0.82;;;2.20;99.90;;;;;;5094074;28;20058;-70
2021/12/02 02:41:44;;;;;;;1.73;0.60;;;2.10;99.90;;;;;;5093862;28;20040;-70
2021/12/02 02:44:10;;;;;;;3.53;0.80;;;2.00;99.90;;;;;;5093862;28;20498;-71
2021/12/02 02:46:39;;;;;;;6.88;1.13;;;1.90;99.90;;;;;;5093693;28;20071;-71
2021/12/02 02:49:08;;;;;;;4.00;0.50;;;1.90;99.90;;;;;;5093599;28;20055;-71
2021/12/02 02:51:36;;;;;;;4.10;0.90;;;1.90;99.90;;;;;;5093165;28;20044;-71
2021/12/02 02:54:05;;;;;;;4.80;1.00;;;1.80;99.90;;;;;;5093895;28;20051;-70
2021/12/02 02:56:34;;;;;;;3.95;0.90;;;1.80;99.90;;;;;;5093592;28;20044;-71
2021/12/02 03:06:51;;;;;;;5.07;0.52;;;1.80;99.90;;;;;;5073271;28;20107;-70
2021/12/02 03:11:52;;;;;;;6.85;1.30;;;1.90;99.90;;;;;;5072960;28;20052;-70
2021/12/02 03:14:27;;;;;;;7.43;1.55;;;1.80;99.90;;;;;;5073139;28;20040;-70
2021/12/02 03:16:53;;;;;;;3.42;0.68;;;1.80;99.90;;;;;;5072996;28;20485;-70
2021/12/02 03:19:27;;;;;;;5.03;0.90;;;1.80;99.90;;;;;;5072941;28;20052;-70
2021/12/02 03:21:55;;;;;;;5.60;1.02;;;1.80;99.90;;;;;;5072626;28;20511;-71
2021/12/02 03:24:21;;;;;;;5.80;1.10;;;1.90;99.90;;;;;;5072585;28;20538;-70
2021/12/02 03:26:48;;;;;;;4.55;1.00;;;2.00;99.90;;;;;;5072806;28;20059;-70
2021/12/02 03:29:14;;;;;;;3.22;0.73;;;2.00;99.90;;;;;;5072922;28;20357;-70
2021/12/02 03:31:40;;;;;;;2.28;0.60;;;2.20;99.90;;;;;;5072785;28;20121;-71
2021/12/02 03:34:07;;;;;;;4.25;0.70;;;2.30;99.90;;;;;;5072890;28;20318;-70
2021/12/02 03:36:34;;;;;;;3.42;0.65;;;2.40;99.90;;;;;;5072618;28;20488;-70
2021/12/02 03:39:01;;;;;;;2.25;1.15;;;2.40;99.90;;;;;;5072734;28;20127;-71
2021/12/02 03:41:27;;;;;;;1.63;0.40;;;2.50;99.90;;;;;;5072767;28;20086;-70
2021/12/02 03:43:53;;;;;;;2.65;0.40;;;2.50;99.90;;;;;;5072822;28;20052;-70
2021/12/02 03:46:21;;;;;;;3.72;0.40;;;2.60;99.90;;;;;;5072691;28;20072;-71
2021/12/02 03:48:49;;;;;;;5.75;0.60;;;2.60;99.90;;;;;;5072513;28;20345;-71
2021/12/02 03:51:15;;;;;;;1.48;0.50;;;2.60;99.90;;;;;;5072582;28;20036;-72
2021/12/02 03:53:41;;;;;;;1.70;0.40;;;2.70;99.90;;;;;;5072302;28;20041;-71
2021/12/02 03:56:08;;;;;;;2.25;0.40;;;2.60;99.90;;;;;;5072612;28;20064;-70
2021/12/02 03:58:36;;;;;;;2.22;0.60;;;2.60;99.90;;;;;;5054556;28;20373;-71
2021/12/02 04:01:02;;;;;;;3.13;0.40;;;2.60;99.90;;;;;;5072210;28;20048;-71
2021/12/02 04:03:28;;;;;;;4.75;1.38;;;2.60;99.90;;;;;;5075424;28;20039;-71
2021/12/02 04:05:53;;;;;;;2.08;0.50;;;2.50;99.90;;;;;;5092544;28;20166;-71
2021/12/02 04:08:24;;;;;;;3.67;0.40;;;2.50;99.90;;;;;;5092073;28;20488;-70
2021/12/02 04:10:58;;;;;;;3.05;0.73;;;2.50;99.90;;;;;;5092278;28;20044;-70
2021/12/02 04:13:28;;;;;;;1.60;0.57;;;2.50;99.90;;;;;;5092600;28;20067;-71
2021/12/02 04:15:58;;;;;;;2.33;0.60;;;2.50;99.90;;;;;;5092367;28;20365;-70
2021/12/02 04:18:24;;;;;;;;;;;2.40;99.90;;;;;;5092888;28;20122;-71
2021/12/02 04:20:50;;;;;;;2.08;0.52;;;2.40;99.90;;;;;;5074875;28;20340;-71
2021/12/02 04:23:16;;;;;;;3.47;0.57;;;2.40;99.90;;;;;;5092312;28;20062;-71
2021/12/02 04:25:41;;;;;;;0.85;0.40;;;2.50;99.90;;;;;;5092626;28;20059;-71
2021/12/02 04:28:07;;;;;;;3.65;0.55;;;2.50;99.90;;;;;;5092250;28;20075;-71
2021/12/02 04:30:33;;;;;;;1.27;0.40;;;2.50;99.90;;;;;;5092032;28;20052;-70
2021/12/02 04:32:59;;;;;;;1.60;0.70;;;2.60;99.90;;;;;;5092051;28;20054;-71
2021/12/02 04:35:25;;;;;;;2.53;0.52;;;2.60;99.90;;;;;;5092405;28;20044;-70
2021/12/02 04:37:51;;;;;;;2.13;0.40;;;2.60;99.90;;;;;;5092190;28;20063;-71
2021/12/02 04:40:20;;;;;;;2.25;0.60;;;2.70;99.90;;;;;;5092403;28;20039;-71
2021/12/02 04:42:47;;;;;;;1.73;0.73;;;2.70;99.90;;;;;;5092081;28;20044;-71
2021/12/02 04:45:13;;;;;;;2.42;0.40;;;2.70;99.90;;;;;;5092175;28;20228;-71
2021/12/02 04:47:39;;;;;;;1.35;0.28;;;2.80;99.90;;;;;;5091912;28;20438;-72
2021/12/02 04:50:08;;;;;;;2.42;0.60;;;2.80;99.90;;;;;;5092069;28;20126;-71
2021/12/02 04:52:34;;;;;;;3.13;0.40;;;2.80;99.90;;;;;;5092154;28;20043;-71
2021/12/02 04:55:00;;;;;;;3.42;0.45;;;2.80;99.90;;;;;;5092262;28;20036;-71
2021/12/02 04:57:26;;;;;;;1.70;0.50;;;2.70;99.90;;;;;;5074229;28;20044;-71
2021/12/02 04:59:52;;;;;;;0.70;0.40;;;2.60;99.90;;;;;;5091954;28;20044;-72
2021/12/02 05:02:18;;;;;;;1.27;0.50;;;2.50;99.90;;;;;;5091726;28;20135;-71
2021/12/02 05:04:43;;;;;;;2.10;0.40;;;2.50;99.90;;;;;;5077902;28;20121;-71
2021/12/02 05:07:09;;;;;;;1.58;0.32;;;2.40;99.90;;;;;;5071885;28;20086;-71
2021/12/02 05:09:35;;;;;;;3.75;0.43;;;2.40;99.90;;;;;;5071673;28;20343;-70
2021/12/02 05:12:01;;;;;;;4.65;0.50;;;2.40;99.90;;;;;;5071790;28;20084;-71
2021/12/02 05:14:27;;;;;;;6.70;0.70;;;2.40;99.90;;;;;;5074244;28;20052;-71
2021/12/02 05:16:52;;;;;;;1.08;0.43;;;2.40;99.90;;;;;;5075206;28;20518;-71
2021/12/02 05:19:18;;;;;;;2.80;0.40;;;2.60;99.90;;;;;;5075250;28;20048;-70
2021/12/02 05:21:44;;;;;;;1.35;0.45;;;2.50;99.90;;;;;;5075286;28;20054;-71
2021/12/02 05:24:10;;;;;;;0.75;0.30;;;2.60;99.90;;;;;;5075105;28;20044;-70
2021/12/02 05:26:36;;;;;;;1.02;0.30;;;2.60;99.90;;;;;;5075034;28;20460;-70
2021/12/02 05:29:02;;;;;;;2.78;0.40;;;2.60;99.90;;;;;;5074696;28;20044;-71
2021/12/02 05:31:28;;;;;;;1.13;0.50;;;2.60;99.90;;;;;;5074793;28;20430;-70
2021/12/02 05:33:54;;;;;;;3.97;0.52;;;2.60;99.90;;;;;;5074840;28;20060;-70
2021/12/02 05:36:19;;;;;;;2.95;0.60;;;2.60;99.90;;;;;;5074994;28;20044;-71
2021/12/02 05:38:45;;;;;;;0.82;0.55;;;2.60;99.90;;;;;;5074991;28;20045;-71
2021/12/02 05:41:16;;;;;;;1.80;0.22;;;2.50;99.90;;;;;;5075004;28;20040;-71
2021/12/02 05:43:42;;;;;;;2.17;0.38;;;2.50;99.90;;;;;;5074674;28;20040;-71
2021/12/02 05:46:08;;;;;;;3.53;0.63;;;2.40;99.90;;;;;;5074818;28;20045;-70
2021/12/02 05:48:34;;;;;;;2.17;0.32;;;2.30;99.90;;;;;;5074470;28;20491;-72
2021/12/02 05:50:59;;;;;;;1.90;0.70;;;2.30;99.90;;;;;;5074870;28;20040;-72
2021/12/02 05:53:25;;;;;;;1.38;0.30;;;2.20;99.90;;;;;;5074675;28;20438;-71
2021/12/02 05:55:51;;;;;;;2.35;0.68;;;2.20;99.90;;;;;;5074641;28;20049;-71
2021/12/02 05:58:17;;;;;;;1.95;0.65;;;2.20;99.90;;;;;;5074245;28;20044;-71
2021/12/02 06:00:43;;;;;;;2.97;0.50;;;2.20;99.90;;;;;;5074527;28;20055;-71
2021/12/02 06:03:09;;;;;;;3.65;0.60;;;2.20;99.90;;;;;;5074910;28;20041;-71
2021/12/02 06:05:35;;;;;;;1.20;0.50;;;2.20;99.90;;;;;;5094697;28;20054;-71
2021/12/02 06:08:03;;;;;;;1.27;0.40;;;2.20;99.90;;;;;;5094495;28;20054;-71
2021/12/02 06:10:30;;;;;;;1.25;0.50;;;2.20;99.90;;;;;;5094494;28;20357;-71
2021/12/02 06:12:57;;;;;;;3.60;0.50;;;2.20;99.90;;;;;;5094142;28;20464;-71
2021/12/02 06:15:23;;;;;;;3.80;0.73;;;2.30;99.90;;;;;;5094526;28;20054;-71
2021/12/02 06:17:49;;;;;;;0.95;0.40;;;2.30;99.90;;;;;;5094521;28;20048;-71
2021/12/02 06:20:19;;;;;;;2.20;0.40;;;2.30;99.90;;;;;;5094370;28;20076;-71
2021/12/02 06:22:46;;;;;;;1.80;0.40;;;2.30;99.90;;;;;;5094348;28;20358;-70
2021/12/02 06:27:44;;;;;;;1.98;0.57;;;2.30;99.90;;;;;;5094227;28;20105;-71
2021/12/02 06:30:10;;;;;;;;;;;2.30;99.90;;;;;;5094585;28;20036;-71
2021/12/02 06:32:36;;;;;;;4.55;0.57;;;2.30;99.90;;;;;;5094207;28;19977;-71
2021/12/02 06:35:02;;;;;;;3.75;0.40;;;2.30;99.90;;;;;;5094094;28;20052;-70
2021/12/02 06:37:28;;;;;;;1.88;0.50;;;2.30;99.90;;;;;;5093940;28;20052;-71
2021/12/02 06:39:53;;;;;;;5.70;0.55;;;2.30;99.90;;;;;;5093818;28;20449;-70
2021/12/02 06:42:19;;;;;;;1.75;0.50;;;2.40;99.90;;;;;;5093910;28;20036;-71
2021/12/02 06:44:45;;;;;;;2.38;0.50;;;2.40;99.90;;;;;;5093734;28;20047;-71
2021/12/02 06:47:11;;;;;;;2.67;0.68;;;2.50;99.90;;;;;;5093825;28;20040;-71
2021/12/02 06:49:39;;;;;;;3.80;1.50;;;2.50;99.90;;;;;;5093758;28;20181;-71
2021/12/02 06:52:15;;;;;;;5.63;0.60;;;2.50;99.90;;;;;;5093682;28;20040;-70
2021/12/02 06:54:41;;;;;;;1.30;0.40;;;2.60;99.90;;;;;;5093140;28;20093;-73
2021/12/02 06:57:07;;;;;;;8.70;0.90;;;2.60;99.90;;;;;;5093691;28;20233;-70
2021/12/02 06:59:33;;;;;;;1.75;0.40;;;2.60;99.90;;;;;;5093531;28;20087;-71
2021/12/02 07:01:59;;;;;;;0.85;0.38;;;2.60;99.90;;;;;;5093708;28;20090;-71
2021/12/02 07:04:25;;;;;;;2.33;0.50;;;2.60;99.90;;;;;;5082096;28;20077;-71
2021/12/02 07:06:51;;;;;;;4.25;0.75;;;2.60;99.90;;;;;;5073339;28;20105;-70
2021/12/02 07:09:17;;;;;;;3.60;0.60;;;2.70;99.90;;;;;;5072578;28;20052;-70
2021/12/02 07:11:43;;;;;;;2.67;0.60;;;2.70;99.90;;;;;;5073074;28;20048;-70
2021/12/02 07:14:14;;;;;;;3.05;0.73;;;2.70;99.90;;;;;;5072965;28;20044;-70
2021/12/02 07:16:41;;;;;;;1.27;0.35;;;2.70;99.90;;;;;;5073184;28;20040;-71
2021/12/02 07:19:08;;;;;;;1.95;0.40;;;2.70;99.90;;;;;;5072977;28;20349;-71
2021/12/02 07:21:38;;;;;;;2.25;0.52;;;2.70;99.90;;;;;;5055480;28;20058;-71
2021/12/02 07:24:09;;;;;;;2.58;0.55;;;2.80;99.90;;;;;;5072782;28;20049;-70
2021/12/02 07:26:40;;;;;;;1.67;0.57;;;2.80;99.90;;;;;;5072813;28;20434;-71
2021/12/02 07:29:13;;;;;;;3.60;0.30;;;2.80;99.90;;;;;;5072952;28;20051;-70
2021/12/02 07:31:41;;;;;;;3.30;0.55;;;2.90;99.90;;;;;;5072924;28;20048;-71
2021/12/02 07:34:08;;;;;;;1.40;0.82;;;2.90;99.90;;;;;;5072609;28;20097;-70
2021/12/02 07:36:34;;;;;;;1.08;0.43;;;2.90;99.90;;;;;;5072330;28;20041;-71
2021/12/02 07:39:02;;;;;;;2.95;0.70;;;2.90;99.90;;;;;;5072352;28;20124;-70
2021/12/02 07:41:28;;;;;;;2.10;0.40;;;2.90;99.90;;;;;;5072592;28;20469;-71
2021/12/02 07:43:54;;;;;;;0.90;0.40;;;2.90;99.90;;;;;;5072668;28;20044;-70
2021/12/02 07:46:19;;;;;;;0.93;0.40;;;2.80;99.90;;;;;;5072688;28;20041;-70
2021/12/02 07:48:45;;;;;;;0.98;0.28;;;2.80;99.90;;;;;;5072513;28;20123;-71
2021/12/02 07:51:17;;;;;;;3.60;0.57;;;2.70;99.90;;;;;;5072410;28;20044;-70
2021/12/02 07:53:45;;;;;;;1.17;0.50;;;2.70;99.90;;;;;;5072426;28;20446;-71
2021/12/02 07:56:14;;;;;;;0.77;0.30;;;2.70;99.90;;;;;;5072535;28;20036;-70
2021/12/02 07:58:43;;;;;;;2.72;0.50;;;2.70;99.90;;;;;;5072650;28;20048;-70
2021/12/02 08:01:10;;;;;;;4.00;0.45;;;2.70;99.90;;;;;;5072492;28;20099;-70
2021/12/02 08:03:36;;;;;;;1.17;0.40;;;2.70;99.90;;;;;;5076419;28;20260;-70
2021/12/02 08:06:02;;;;;;;2.35;0.40;;;2.60;99.90;;;;;;5092543;28;20178;-70
2021/12/02 08:08:28;;;;;;;2.40;0.32;;;2.60;99.90;;;;;;5091933;28;20131;-70
2021/12/02 08:10:53;;;;;;;1.77;0.40;;;2.60;99.90;;;;;;5092459;28;20059;-71
2021/12/02 08:13:26;;;;;;;12.85;10.90;;;2.50;99.90;;;;;;5092415;28;20032;-70
2021/12/02 08:15:52;;;;;;;1.35;0.70;;;2.50;99.90;;;;;;5092307;28;20051;-70
2021/12/02 08:18:18;;;;;;;9.60;7.57;;;2.50;99.90;;;;;;5092500;28;20040;-71
2021/12/02 08:20:43;;;;;;;3.47;1.90;;;2.40;99.90;;;;;;5092428;28;20044;-70
2021/12/02 08:23:09;;;;;;;4.38;0.60;;;2.40;99.90;;;;;;5092329;28;20040;-71
2021/12/02 08:25:35;;;;;;;1.20;0.40;;;2.40;99.90;;;;;;5092456;28;20048;-70
2021/12/02 08:28:01;;;;;;;3.63;0.57;;;2.30;99.90;;;;;;5092430;28;20036;-71
2021/12/02 08:30:30;;;;;;;4.38;1.00;;;2.30;99.90;;;;;;5092183;28;20142;-72
2021/12/02 08:32:58;;;;;;;11.80;5.82;;;2.30;99.90;;;;;;5092115;28;20459;-71
2021/12/02 08:35:25;;;;;;;24.75;18.45;;;2.20;99.90;;;;;;5091104;28;20322;-70
2021/12/02 08:37:54;;;;;;;17.83;11.63;;;2.30;99.90;;;;;;5090618;28;20048;-71
2021/12/02 08:40:29;;;;;;;15.65;10.63;;;2.30;99.90;;;;;;5072055;28;20064;-70
2021/12/02 08:42:55;;;;;;;10.95;6.80;;;2.30;99.90;;;;;;5087176;28;20039;-71
2021/12/02 08:45:21;;;;;;;16.17;8.55;;;2.40;99.90;;;;;;5112207;28;20116;-72
2021/12/02 08:47:46;;;;;;;4.97;3.13;;;2.50;99.90;;;;;;5112708;28;20039;-71
2021/12/02 08:50:18;;;;;;;2.78;1.23;;;2.60;99.90;;;;;;5116344;28;20047;-70
2021/12/02 08:52:45;;;;;;;3.10;1.10;;;2.70;99.90;;;;;;5116461;28;20506;-70
2021/12/02 08:55:12;;;;;;;4.75;1.15;;;2.80;99.90;;;;;;5107258;28;20047;-71
2021/12/02 08:57:38;;;;;;;2.17;0.55;;;2.90;99.90;;;;;;5094559;28;20083;-71
2021/12/02 09:00:07;;;;;;;1.77;0.55;;;3.00;99.90;;;;;;5095746;28;20102;-71
2021/12/02 09:02:33;;;;;;;6.63;1.10;;;3.10;99.90;;;;;;5095661;28;20052;-71
2021/12/02 09:05:00;;;;;;;3.72;0.70;;;3.20;99.90;;;;;;5079618;28;20051;-71
2021/12/02 09:07:25;;;;;;;2.60;0.57;;;3.90;99.90;;;;;;5075083;28;20059;-72
2021/12/02 09:09:51;;;;;;;3.63;0.50;;;4.80;99.90;;;;;;5075355;28;20044;-72
2021/12/02 09:12:17;;;;;;;4.28;0.63;;;5.00;99.90;;;;;;5075041;28;20045;-71
2021/12/02 09:14:43;;;;;;;3.05;0.60;;;4.90;99.90;;;;;;5074825;28;20051;-71
2021/12/02 09:17:09;;;;;;;4.10;0.52;;;4.60;99.90;;;;;;5075038;28;20044;-71
2021/12/02 09:19:35;;;;;;;3.65;0.60;;;4.40;99.90;;;;;;5074481;28;20052;-71
2021/12/02 09:22:00;;;;;;;3.15;0.80;;;4.20;99.90;;;;;;5074832;28;20123;-71
2021/12/02 09:24:26;;;;;;;2.17;0.77;;;4.10;99.90;;;;;;5074754;28;20133;-72
2021/12/02 09:26:54;;;;;;;1.63;0.75;;;4.00;99.90;;;;;;5074756;28;20361;-72
2021/12/02 09:29:20;;;;;;;6.30;0.88;;;4.00;99.90;;;;;;5075008;28;20190;-72
2021/12/02 09:31:47;;;;;;;3.25;0.73;;;4.00;99.90;;;;;;5093331;28;20152;-73
2021/12/02 09:34:14;;;;;;;7.28;3.08;;;4.00;99.90;;;;;;5115648;28;20055;-72
2021/12/02 09:36:41;;;;;;;7.40;1.35;;;4.10;99.90;;;;;;5097766;28;20051;-72
2021/12/02 09:39:09;;;;;;;3.15;0.93;;;4.10;99.90;;;;;;5115397;28;20062;-72
2021/12/02 09:41:36;;;;;;;3.80;0.77;;;4.00;99.90;;;;;;5115399;28;20513;-72
2021/12/02 09:44:02;;;;;;;4.00;0.75;;;4.00;99.90;;;;;;5115293;28;20074;-72
2021/12/02 09:46:28;;;;;;;5.20;0.90;;;4.10;99.90;;;;;;5115189;28;20040;-73
2021/12/02 09:48:56;;;;;;;4.88;1.10;;;4.20;99.90;;;;;;5115312;28;20114;-72
2021/12/02 09:51:25;;;;;;;3.17;0.98;;;4.20;99.90;;;;;;5115160;28;20047;-72
2021/12/02 09:53:55;;;;;;;2.53;0.77;;;4.50;99.90;;;;;;5114845;28;20494;-72
2021/12/02 09:56:26;;;;;;;1.55;0.65;;;5.10;99.90;;;;;;5115053;28;20353;-72
2021/12/02 09:58:56;;;;;;;2.92;0.68;;;5.80;99.90;;;;;;5096870;28;20043;-73
2021/12/02 10:01:35;;;;;;;0.50;0.22;;;6.10;99.90;;;;;;5115247;28;20040;-72
2021/12/02 10:04:03;;;;;;;2.38;0.60;;;6.00;99.90;;;;;;5106618;28;20080;-71
2021/12/02 10:06:31;;;;;;;3.55;0.60;;;5.70;99.90;;;;;;5094358;28;20431;-70
2021/12/02 10:09:13;;;;;;;1.15;0.47;;;5.50;99.90;;;;;;5094207;28;20561;-70
2021/12/02 10:14:20;;;;;;;3.30;0.57;;;6.50;99.90;;;;;;5114940;28;20109;-70
2021/12/02 10:16:47;;;;;;;1.75;0.73;;;7.40;99.90;;;;;;5114524;28;20043;-71
2021/12/02 10:19:18;;;;;;;3.17;0.75;;;8.10;99.90;;;;;;5114723;28;20039;-71
2021/12/02 10:21:52;;;;;;;1.80;0.68;;;8.70;99.90;;;;;;5114499;28;20047;-71
2021/12/02 10:24:23;;;;;;;2.22;0.52;;;9.20;99.90;;;;;;5114608;28;20457;-71
2021/12/02 10:26:50;;;;;;;1.58;0.50;;;9.60;99.90;;;;;;5114492;28;20043;-72
2021/12/02 10:29:25;;;;;;;4.00;0.85;;;10.00;99.90;;;;;;5114666;28;20055;-71
2021/12/02 10:32:19;;;;;;;4.70;0.80;;;10.50;99.90;;;;;;5104503;28;20052;-71
2021/12/02 10:34:56;;;;;;;3.92;0.80;;;11.00;99.90;;;;;;5091133;28;20065;-71
2021/12/02 10:37:25;;;;;;;3.72;0.70;;;11.20;99.90;;;;;;5093957;28;20402;-72
2021/12/02 10:40:04;;;;;;;1.70;0.60;;;11.60;99.90;;;;;;5094338;28;20127;-77
2021/12/02 10:42:32;;;;;;;1.95;0.50;;;11.80;99.90;;;;;;5076158;28;20483;-70
2021/12/02 10:45:02;;;;;;;2.78;0.90;;;10.50;98.50;;;;;;5093842;28;20094;-70
2021/12/02 10:47:29;;;;;;;0.77;0.30;;;8.70;99.90;;;;;;5093913;28;20055;-70
2021/12/02 10:49:58;;;;;;;2.05;0.40;;;7.20;99.90;;;;;;5093778;28;20047;-72
2021/12/02 10:52:30;;;;;;;1.90;0.57;;;6.00;99.90;;;;;;5093429;28;20476;-70
2021/12/02 10:55:07;;;;;;;1.70;0.60;;;5.20;99.90;;;;;;5093848;28;20050;-71
2021/12/02 10:57:35;;;;;;;2.58;0.75;;;4.70;99.90;;;;;;5093645;28;20055;-70
2021/12/02 11:00:09;;;;;;;3.40;0.50;;;4.30;99.90;;;;;;5093858;28;20051;-71
2021/12/02 11:02:43;;;;;;;1.40;0.50;;;4.00;99.90;;;;;;5093555;28;20453;-70
2021/12/02 11:05:19;;;;;;;4.13;0.55;;;3.70;99.90;;;;;;5093413;28;20051;-69
2021/12/02 11:07:53;;;;;;;1.38;0.30;;;3.50;99.90;;;;;;5093323;28;20056;-70
2021/12/02 11:10:18;;;;;;;1.85;0.40;;;3.20;99.90;;;;;;5093254;28;20059;-70
2021/12/02 11:12:48;;;;;;;2.50;0.65;;;3.10;99.90;;;;;;5093135;28;20043;-70
2021/12/02 11:15:16;;;;;;;3.10;0.65;;;3.00;99.90;;;;;;5093325;28;20040;-71
2021/12/02 11:18:02;;;;;;;3.70;1.00;;;2.90;99.90;;;;;;5093229;28;20479;-70
2021/12/02 11:20:33;;;;;;;3.58;0.70;;;2.80;99.90;;;;;;5093361;28;20480;-72
2021/12/02 11:23:12;;;;;;;4.00;1.13;;;2.70;99.90;;;;;;5093223;28;20055;-70
2021/12/02 11:25:59;;;;;;;3.95;0.63;;;2.70;99.90;;;;;;5091259;28;20036;-71
2021/12/02 11:28:27;;;;;;;6.00;2.28;;;2.70;99.90;;;;;;5113304;28;20040;-71
2021/12/02 11:30:54;;;;;;;2.80;0.70;;;2.80;99.90;;;;;;5101908;28;20342;-70
2021/12/02 11:33:29;;;;;;;1.85;0.40;;;3.10;99.90;;;;;;5092874;28;20440;-71
2021/12/02 11:35:55;;;;;;;1.05;0.47;;;4.40;99.90;;;;;;5092769;28;20043;-72
2021/12/02 11:38:25;;;;;;;1.25;0.30;;;5.50;99.90;;;;;;5075115;28;20343;-72
2021/12/02 11:40:59;;;;;;;2.05;0.55;;;6.30;99.90;;;;;;5092731;28;20137;-71
2021/12/02 11:43:35;;;;;;;2.38;0.50;;;7.10;99.90;;;;;;5106781;28;20681;-71
2021/12/02 11:46:03;;;;;;;1.17;0.47;;;7.90;99.90;;;;;;5113297;28;20132;-71
2021/12/02 11:48:32;;;;;;;5.15;0.50;;;8.50;99.90;;;;;;5113152;28;20040;-72
2021/12/02 11:51:03;;;;;;;2.10;0.50;;;8.60;99.90;;;;;;5113062;28;20073;-71
2021/12/02 11:53:29;;;;;;;1.63;0.50;;;8.80;99.90;;;;;;5113090;28;20043;-70
2021/12/02 11:55:56;;;;;;;0.60;0.30;;;8.90;99.90;;;;;;5113038;28;20446;-71
2021/12/02 11:58:23;;;;;;;2.03;0.35;;;9.00;99.90;;;;;;5113055;28;20043;-71
2021/12/02 12:00:49;;;;;;;2.00;0.60;;;8.80;99.90;;;;;;5113126;28;20047;-71
2021/12/02 12:03:22;;;;;;;1.77;0.50;;;8.50;99.90;;;;;;5111180;28;20047;-71
2021/12/02 12:05:57;;;;;;;1.63;0.63;;;8.40;99.90;;;;;;5092601;28;20050;-71
2021/12/02 12:08:35;;;;;;;1.27;0.50;;;8.80;99.90;;;;;;5092173;28;20048;-70
2021/12/02 12:11:34;;;;;;;2.42;0.90;;;9.20;99.90;;;;;;5092621;28;20131;-70
2021/12/02 12:14:08;;;;;;;1.48;0.55;;;9.20;99.90;;;;;;5037652;28;20052;-71
2021/12/02 12:16:38;;;;;;;2.08;0.65;;;9.10;99.90;;;;;;5092393;28;20474;-71
2021/12/02 12:19:16;;;;;;;1.40;0.52;;;9.10;99.90;;;;;;5092475;28;20048;-71
2021/12/02 12:21:49;;;;;;;3.03;0.70;;;8.90;99.90;;;;;;5092017;28;20047;-70
2021/12/02 12:24:15;;;;;;;3.95;0.73;;;8.40;99.90;;;;;;5096421;28;20083;-71
2021/12/02 12:26:46;;;;;;;1.75;0.60;;;7.90;99.90;;;;;;5096432;28;20815;-71
2021/12/02 12:29:15;;;;;;;1.75;0.60;;;7.50;99.90;;;;;;5096560;28;20118;-70
2021/12/02 12:31:54;;;;;;;2.95;0.63;;;7.20;99.90;;;;;;5096644;28;20046;-71
2021/12/02 12:34:30;;;;;;;0.98;0.40;;;7.00;99.90;;;;;;5096363;28;20059;-70
2021/12/02 12:36:57;;;;;;;1.95;0.50;;;6.70;99.90;;;;;;5096413;28;20043;-71
2021/12/02 12:39:28;;;;;;;2.97;0.50;;;6.50;99.90;;;;;;5096308;28;20052;-70
2021/12/02 12:42:15;;;;;;;2.15;0.40;;;6.30;99.90;;;;;;5096370;28;20040;-71
2021/12/02 12:44:54;;;;;;;2.65;0.50;;;6.00;99.90;;;;;;5096255;28;20048;-70
2021/12/02 12:47:40;;;;;;;2.88;0.90;;;5.80;99.90;;;;;;5096228;28;20170;-70
2021/12/02 12:50:36;;;;;;;2.05;0.63;;;5.70;99.90;;;;;;5096014;28;20036;-71
2021/12/02 12:53:04;;;;;;;3.65;0.73;;;5.50;99.90;;;;;;5087892;28;20513;-70
2021/12/02 12:55:39;;;;;;;2.97;0.50;;;5.40;99.90;;;;;;5095663;28;20455;-69
2021/12/02 12:58:22;;;;;;;1.23;0.40;;;5.60;99.90;;;;;;5096121;28;20055;-70
2021/12/02 13:00:51;;;;;;;0.90;0.60;;;5.50;99.90;;;;;;5095994;28;20043;-70
2021/12/02 13:03:22;;;;;;;0.93;0.60;;;5.50;99.90;;;;;;5094086;28;20074;-70
2021/12/02 13:06:02;;;;;;;0.60;0.20;;;5.60;99.90;;;;;;5075603;28;20137;-70
2021/12/02 13:08:37;;;;;;;0.90;0.43;;;5.70;99.90;;;;;;5075152;28;20538;-70
2021/12/02 13:11:12;;;;;;;0.70;0.30;;;5.60;99.90;;;;;;5075474;28;20323;-70
2021/12/02 13:13:39;;;;;;;2.13;0.47;;;5.50;99.90;;;;;;5075534;28;20087;-70
2021/12/02 13:16:17;;;;;;;1.30;0.55;;;5.70;99.90;;;;;;5075331;28;20097;-70
2021/12/02 13:18:57;;;;;;;1.15;0.32;;;5.60;99.90;;;;;;5075629;28;20040;-70
2021/12/02 13:21:34;;;;;;;0.50;0.28;;;5.50;99.90;;;;;;5075328;28;20052;-70
2021/12/02 13:24:09;;;;;;;0.68;0.30;;;5.60;99.90;;;;;;5075154;28;20083;-70
2021/12/02 13:26:38;;;;;;;0.75;0.68;;;5.70;99.90;;;;;;5075277;28;20051;-70